sensor_id;sensor_type;location;lat;lon;timestamp;temperature;humidity
28761;DHT22;15917;50.014;8.352;2023-10-13T00:01:54;16.80;99.90
28761;DHT22;15917;50.014;8.352;2023-10-13T00:04:21;16.80;99.90
28761;DHT22;15917;50.014;8.352;2023-10-13T00:06:54;16.80;99.90
28761;DHT22;15917;50.014;8.352;2023-10-13T00:09:25;16.80;99.90
28761;DHT22;15917;50.014;8.352;2023-10-13T00:11:58;16.80;99.90
28761;DHT22;15917;50.014;8.352;2023-10-13T00:14:23;16.70;99.90
28761;DHT22;15917;50.014;8.352;2023-10-13T00:16:57;16.80;99.90
28761;DHT22;15917;50.014;8.352;2023-10-13T00:19:37;16.70;99.90
28761;DHT22;15917;50.014;8.352;2023-10-13T00:22:10;16.80;99.90
28761;DHT22;15917;50.014;8.352;2023-10-13T00:24:40;16.80;99.90
28761;DHT22;15917;50.014;8.352;2023-10-13T00:27:11;16.80;99.90
28761;DHT22;15917;50.014;8.352;2023-10-13T00:29:54;16.70;99.90
28761;DHT22;15917;50.014;8.352;2023-10-13T00:32:41;16.70;99.90
28761;DHT22;15917;50.014;8.352;2023-10-13T00:35:09;16.70;99.90
28761;DHT22;15917;50.014;8.352;2023-10-13T00:37:35;16.60;99.90
28761;DHT22;15917;50.014;8.352;2023-10-13T00:40:07;16.60;99.90
28761;DHT22;15917;50.014;8.352;2023-10-13T00:42:42;16.60;99.90
28761;DHT22;15917;50.014;8.352;2023-10-13T00:45:17;16.60;99.90
28761;DHT22;15917;50.014;8.352;2023-10-13T00:47:44;16.60;99.90
28761;DHT22;15917;50.014;8.352;2023-10-13T00:50:21;16.60;99.90
28761;DHT22;15917;50.014;8.352;2023-10-13T00:52:49;16.60;99.90
28761;DHT22;15917;50.014;8.352;2023-10-13T00:55:18;16.60;99.90
28761;DHT22;15917;50.014;8.352;2023-10-13T00:57:44;16.60;99.90
28761;DHT22;15917;50.014;8.352;2023-10-13T01:00:12;16.60;99.90
28761;DHT22;15917;50.014;8.352;2023-10-13T01:02:45;16.60;99.90
28761;DHT22;15917;50.014;8.352;2023-10-13T01:05:13;16.60;99.90
28761;DHT22;15917;50.014;8.352;2023-10-13T01:07:46;16.60;99.90
28761;DHT22;15917;50.014;8.352;2023-10-13T01:10:16;16.50;99.90
28761;DHT22;15917;50.014;8.352;2023-10-13T01:12:42;16.60;99.90
28761;DHT22;15917;50.014;8.352;2023-10-13T01:15:09;16.50;99.90
28761;DHT22;15917;50.014;8.352;2023-10-13T01:17:36;16.50;99.90
28761;DHT22;15917;50.014;8.352;2023-10-13T01:20:03;16.60;99.90
28761;DHT22;15917;50.014;8.352;2023-10-13T01:22:30;16.60;99.90
28761;DHT22;15917;50.014;8.352;2023-10-13T01:24:57;16.60;99.90
28761;DHT22;15917;50.014;8.352;2023-10-13T01:27:36;16.60;99.90
28761;DHT22;15917;50.014;8.352;2023-10-13T01:30:04;16.60;99.90
28761;DHT22;15917;50.014;8.352;2023-10-13T01:32:38;16.60;99.90
28761;DHT22;15917;50.014;8.352;2023-10-13T01:35:07;16.60;99.90
28761;DHT22;15917;50.014;8.352;2023-10-13T01:37:33;16.60;99.90
28761;DHT22;15917;50.014;8.352;2023-10-13T01:39:58;16.60;99.90
28761;DHT22;15917;50.014;8.352;2023-10-13T01:42:24;16.60;99.90
28761;DHT22;15917;50.014;8.352;2023-10-13T01:44:51;16.70;99.90
28761;DHT22;15917;50.014;8.352;2023-10-13T01:47:17;16.70;99.90
28761;DHT22;15917;50.014;8.352;2023-10-13T01:49:43;16.70;99.90
28761;DHT22;15917;50.014;8.352;2023-10-13T01:52:13;16.70;99.90
28761;DHT22;15917;50.014;8.352;2023-10-13T01:54:45;16.70;99.90
28761;DHT22;15917;50.014;8.352;2023-10-13T01:57:11;16.70;99.90
28761;DHT22;15917;50.014;8.352;2023-10-13T01:59:44;16.70;99.90
28761;DHT22;15917;50.014;8.352;2023-10-13T02:02:10;16.70;99.90
28761;DHT22;15917;50.014;8.352;2023-10-13T02:04:39;16.70;99.90
28761;DHT22;15917;50.014;8.352;2023-10-13T02:07:12;16.70;99.90
28761;DHT22;15917;50.014;8.352;2023-10-13T02:09:41;16.80;99.90
28761;DHT22;15917;50.014;8.352;2023-10-13T02:12:08;16.80;99.90
28761;DHT22;15917;50.014;8.352;2023-10-13T02:14:37;16.80;99.90
28761;DHT22;15917;50.014;8.352;2023-10-13T02:17:03;16.80;99.90
28761;DHT22;15917;50.014;8.352;2023-10-13T02:19:39;16.80;99.90
28761;DHT22;15917;50.014;8.352;2023-10-13T02:22:09;16.80;99.90
28761;DHT22;15917;50.014;8.352;2023-10-13T02:24:36;16.80;99.90
28761;DHT22;15917;50.014;8.352;2023-10-13T02:27:08;16.80;99.90
28761;DHT22;15917;50.014;8.352;2023-10-13T02:29:42;16.80;99.90
28761;DHT22;15917;50.014;8.352;2023-10-13T02:32:11;16.80;99.90
28761;DHT22;15917;50.014;8.352;2023-10-13T02:34:46;16.80;99.90
28761;DHT22;15917;50.014;8.352;2023-10-13T02:37:12;16.70;99.90
28761;DHT22;15917;50.014;8.352;2023-10-13T02:39:40;16.70;99.90
28761;DHT22;15917;50.014;8.352;2023-10-13T02:42:09;16.70;99.90
28761;DHT22;15917;50.014;8.352;2023-10-13T02:44:51;16.70;99.90
28761;DHT22;15917;50.014;8.352;2023-10-13T02:47:17;16.70;99.90
28761;DHT22;15917;50.014;8.352;2023-10-13T02:49:44;16.60;99.90
28761;DHT22;15917;50.014;8.352;2023-10-13T02:52:13;16.60;99.90
28761;DHT22;15917;50.014;8.352;2023-10-13T02:54:40;16.60;99.90
28761;DHT22;15917;50.014;8.352;2023-10-13T02:57:13;16.60;99.90
28761;DHT22;15917;50.014;8.352;2023-10-13T02:59:41;16.60;99.90
28761;DHT22;15917;50.014;8.352;2023-10-13T03:02:12;16.50;99.90
28761;DHT22;15917;50.014;8.352;2023-10-13T03:04:56;16.50;99.90
28761;DHT22;15917;50.014;8.352;2023-10-13T03:07:26;16.50;99.90
28761;DHT22;15917;50.014;8.352;2023-10-13T03:09:55;16.60;99.90
28761;DHT22;15917;50.014;8.352;2023-10-13T03:12:24;16.60;99.90
28761;DHT22;15917;50.014;8.352;2023-10-13T03:14:58;16.50;99.90
28761;DHT22;15917;50.014;8.352;2023-10-13T03:17:40;16.50;99.90
28761;DHT22;15917;50.014;8.352;2023-10-13T03:20:14;16.50;99.90
28761;DHT22;15917;50.014;8.352;2023-10-13T03:22:42;16.50;99.90
28761;DHT22;15917;50.014;8.352;2023-10-13T03:25:11;16.50;99.90
28761;DHT22;15917;50.014;8.352;2023-10-13T03:27:43;16.50;99.90
28761;DHT22;15917;50.014;8.352;2023-10-13T03:30:19;16.50;99.90
28761;DHT22;15917;50.014;8.352;2023-10-13T03:32:46;16.50;99.90
28761;DHT22;15917;50.014;8.352;2023-10-13T03:35:14;16.50;99.90
28761;DHT22;15917;50.014;8.352;2023-10-13T03:38:00;16.50;99.90
28761;DHT22;15917;50.014;8.352;2023-10-13T03:40:25;16.50;99.90
28761;DHT22;15917;50.014;8.352;2023-10-13T03:42:53;16.50;99.90
28761;DHT22;15917;50.014;8.352;2023-10-13T03:45:25;16.50;99.90
28761;DHT22;15917;50.014;8.352;2023-10-13T03:47:52;16.40;99.90
28761;DHT22;15917;50.014;8.352;2023-10-13T03:50:21;16.40;99.90
28761;DHT22;15917;50.014;8.352;2023-10-13T03:52:57;16.50;99.90
28761;DHT22;15917;50.014;8.352;2023-10-13T03:55:26;16.50;99.90
28761;DHT22;15917;50.014;8.352;2023-10-13T03:57:55;16.50;99.90
28761;DHT22;15917;50.014;8.352;2023-10-13T04:00:22;16.50;99.90
28761;DHT22;15917;50.014;8.352;2023-10-13T04:02:52;16.50;99.90
28761;DHT22;15917;50.014;8.352;2023-10-13T04:05:32;16.50;99.90
28761;DHT22;15917;50.014;8.352;2023-10-13T04:08:26;16.50;99.90
28761;DHT22;15917;50.014;8.352;2023-10-13T04:10:53;16.50;99.90
28761;DHT22;15917;50.014;8.352;2023-10-13T04:13:19;16.50;99.90
28761;DHT22;15917;50.014;8.352;2023-10-13T04:16:23;16.50;99.90
28761;DHT22;15917;50.014;8.352;2023-10-13T04:18:49;16.50;99.90
28761;DHT22;15917;50.014;8.352;2023-10-13T04:21:24;16.50;99.90
28761;DHT22;15917;50.014;8.352;2023-10-13T04:24:09;16.50;99.90
28761;DHT22;15917;50.014;8.352;2023-10-13T04:26:51;16.50;99.90
28761;DHT22;15917;50.014;8.352;2023-10-13T04:29:43;16.50;99.90
28761;DHT22;15917;50.014;8.352;2023-10-13T04:32:28;16.50;99.90
28761;DHT22;15917;50.014;8.352;2023-10-13T04:35:01;16.40;99.90
28761;DHT22;15917;50.014;8.352;2023-10-13T04:37:36;16.40;99.90
28761;DHT22;15917;50.014;8.352;2023-10-13T04:40:21;16.40;99.90
28761;DHT22;15917;50.014;8.352;2023-10-13T04:42:56;16.40;99.90
28761;DHT22;15917;50.014;8.352;2023-10-13T04:45:30;16.40;99.90
28761;DHT22;15917;50.014;8.352;2023-10-13T04:47:56;16.40;99.90
28761;DHT22;15917;50.014;8.352;2023-10-13T04:50:45;16.40;99.90
28761;DHT22;15917;50.014;8.352;2023-10-13T04:53:15;16.30;99.90
28761;DHT22;15917;50.014;8.352;2023-10-13T04:55:58;16.40;99.90
28761;DHT22;15917;50.014;8.352;2023-10-13T04:58:28;16.30;99.90
28761;DHT22;15917;50.014;8.352;2023-10-13T05:01:19;16.40;99.90
28761;DHT22;15917;50.014;8.352;2023-10-13T05:03:51;16.30;99.90
28761;DHT22;15917;50.014;8.352;2023-10-13T05:06:35;16.40;99.90
28761;DHT22;15917;50.014;8.352;2023-10-13T05:09:21;16.50;99.90
28761;DHT22;15917;50.014;8.352;2023-10-13T05:12:27;16.60;99.90
28761;DHT22;15917;50.014;8.352;2023-10-13T05:15:10;16.80;99.90
28761;DHT22;15917;50.014;8.352;2023-10-13T05:17:54;16.90;99.90
28761;DHT22;15917;50.014;8.352;2023-10-13T05:20:43;16.90;99.90
28761;DHT22;15917;50.014;8.352;2023-10-13T05:23:27;17.00;99.90
28761;DHT22;15917;50.014;8.352;2023-10-13T05:26:22;17.00;99.90
28761;DHT22;15917;50.014;8.352;2023-10-13T05:29:07;16.90;99.90
28761;DHT22;15917;50.014;8.352;2023-10-13T05:31:51;17.00;99.90
28761;DHT22;15917;50.014;8.352;2023-10-13T05:34:35;17.20;99.90
28761;DHT22;15917;50.014;8.352;2023-10-13T05:37:19;17.30;99.90
28761;DHT22;15917;50.014;8.352;2023-10-13T05:40:04;17.40;99.90
28761;DHT22;15917;50.014;8.352;2023-10-13T05:42:48;17.50;99.90
28761;DHT22;15917;50.014;8.352;2023-10-13T05:45:35;17.40;99.90
28761;DHT22;15917;50.014;8.352;2023-10-13T05:48:26;17.50;99.90
28761;DHT22;15917;50.014;8.352;2023-10-13T05:51:11;17.50;99.90
28761;DHT22;15917;50.014;8.352;2023-10-13T05:53:56;17.40;99.90
28761;DHT22;15917;50.014;8.352;2023-10-13T05:56:46;17.60;99.90
28761;DHT22;15917;50.014;8.352;2023-10-13T05:59:32;17.60;99.90
28761;DHT22;15917;50.014;8.352;2023-10-13T06:02:18;17.70;99.90
28761;DHT22;15917;50.014;8.352;2023-10-13T06:05:04;17.70;99.90
28761;DHT22;15917;50.014;8.352;2023-10-13T06:07:49;17.60;99.90
28761;DHT22;15917;50.014;8.352;2023-10-13T06:10:33;17.70;99.90
28761;DHT22;15917;50.014;8.352;2023-10-13T06:13:17;17.80;99.90
28761;DHT22;15917;50.014;8.352;2023-10-13T06:16:16;17.90;99.90
28761;DHT22;15917;50.014;8.352;2023-10-13T06:19:01;17.70;99.90
28761;DHT22;15917;50.014;8.352;2023-10-13T06:21:45;17.50;99.90
28761;DHT22;15917;50.014;8.352;2023-10-13T06:24:30;17.40;99.90
28761;DHT22;15917;50.014;8.352;2023-10-13T06:27:15;17.20;99.90
28761;DHT22;15917;50.014;8.352;2023-10-13T06:29:59;17.10;99.90
28761;DHT22;15917;50.014;8.352;2023-10-13T06:32:26;17.00;99.90
28761;DHT22;15917;50.014;8.352;2023-10-13T06:34:53;17.10;99.90
28761;DHT22;15917;50.014;8.352;2023-10-13T06:37:26;17.10;99.90
28761;DHT22;15917;50.014;8.352;2023-10-13T06:40:02;17.10;99.90
28761;DHT22;15917;50.014;8.352;2023-10-13T06:42:32;17.10;99.90
28761;DHT22;15917;50.014;8.352;2023-10-13T06:45:00;17.10;99.90
28761;DHT22;15917;50.014;8.352;2023-10-13T06:47:28;17.10;99.90
28761;DHT22;15917;50.014;8.352;2023-10-13T06:49:54;17.10;99.90
28761;DHT22;15917;50.014;8.352;2023-10-13T06:52:22;17.10;99.90
28761;DHT22;15917;50.014;8.352;2023-10-13T06:54:51;17.10;99.90
28761;DHT22;15917;50.014;8.352;2023-10-13T06:57:19;17.10;99.90
28761;DHT22;15917;50.014;8.352;2023-10-13T06:59:48;17.10;99.90
28761;DHT22;15917;50.014;8.352;2023-10-13T07:02:14;17.20;99.90
28761;DHT22;15917;50.014;8.352;2023-10-13T07:04:48;17.20;99.90
28761;DHT22;15917;50.014;8.352;2023-10-13T07:07:22;17.20;99.90
28761;DHT22;15917;50.014;8.352;2023-10-13T07:09:49;17.20;99.90
28761;DHT22;15917;50.014;8.352;2023-10-13T07:12:21;17.20;99.90
28761;DHT22;15917;50.014;8.352;2023-10-13T07:14:52;17.20;99.90
28761;DHT22;15917;50.014;8.352;2023-10-13T07:17:19;17.30;99.90
28761;DHT22;15917;50.014;8.352;2023-10-13T07:19:52;17.30;99.90
28761;DHT22;15917;50.014;8.352;2023-10-13T07:22:44;17.40;99.90
28761;DHT22;15917;50.014;8.352;2023-10-13T07:25:35;17.40;99.90
28761;DHT22;15917;50.014;8.352;2023-10-13T07:28:07;17.50;99.90
28761;DHT22;15917;50.014;8.352;2023-10-13T07:30:37;17.60;99.90
28761;DHT22;15917;50.014;8.352;2023-10-13T07:33:35;17.70;99.90
28761;DHT22;15917;50.014;8.352;2023-10-13T07:36:06;17.90;99.90
28761;DHT22;15917;50.014;8.352;2023-10-13T07:38:53;18.10;99.90
28761;DHT22;15917;50.014;8.352;2023-10-13T07:41:45;18.50;99.90
28761;DHT22;15917;50.014;8.352;2023-10-13T07:44:18;18.80;99.90
28761;DHT22;15917;50.014;8.352;2023-10-13T07:46:45;18.90;99.90
28761;DHT22;15917;50.014;8.352;2023-10-13T07:49:14;19.20;99.90
28761;DHT22;15917;50.014;8.352;2023-10-13T07:51:40;19.30;99.90
28761;DHT22;15917;50.014;8.352;2023-10-13T07:54:15;19.30;99.90
28761;DHT22;15917;50.014;8.352;2023-10-13T07:56:48;19.40;99.90
28761;DHT22;15917;50.014;8.352;2023-10-13T07:59:14;19.40;99.90
28761;DHT22;15917;50.014;8.352;2023-10-13T08:01:47;19.30;99.90
28761;DHT22;15917;50.014;8.352;2023-10-13T08:04:16;19.30;99.90
28761;DHT22;15917;50.014;8.352;2023-10-13T08:06:53;19.40;99.90
28761;DHT22;15917;50.014;8.352;2023-10-13T08:09:28;19.40;99.90
28761;DHT22;15917;50.014;8.352;2023-10-13T08:11:57;19.30;99.90
28761;DHT22;15917;50.014;8.352;2023-10-13T08:14:23;19.30;99.90
28761;DHT22;15917;50.014;8.352;2023-10-13T08:16:50;19.40;99.90
28761;DHT22;15917;50.014;8.352;2023-10-13T08:19:23;19.30;99.90
28761;DHT22;15917;50.014;8.352;2023-10-13T08:22:05;19.30;99.90
28761;DHT22;15917;50.014;8.352;2023-10-13T08:24:50;19.30;99.90
28761;DHT22;15917;50.014;8.352;2023-10-13T08:27:18;19.20;99.90
28761;DHT22;15917;50.014;8.352;2023-10-13T08:30:01;19.30;99.90
28761;DHT22;15917;50.014;8.352;2023-10-13T08:32:28;19.50;99.90
28761;DHT22;15917;50.014;8.352;2023-10-13T08:34:58;20.10;99.90
28761;DHT22;15917;50.014;8.352;2023-10-13T08:37:34;20.40;99.90
28761;DHT22;15917;50.014;8.352;2023-10-13T08:40:13;20.60;99.90
28761;DHT22;15917;50.014;8.352;2023-10-13T08:42:45;20.60;99.90
28761;DHT22;15917;50.014;8.352;2023-10-13T08:45:13;20.70;99.90
28761;DHT22;15917;50.014;8.352;2023-10-13T08:47:57;20.80;99.90
28761;DHT22;15917;50.014;8.352;2023-10-13T08:50:48;20.80;99.90
28761;DHT22;15917;50.014;8.352;2023-10-13T08:53:23;20.70;99.90
28761;DHT22;15917;50.014;8.352;2023-10-13T08:58:28;20.70;99.90
28761;DHT22;15917;50.014;8.352;2023-10-13T09:01:14;20.80;99.90
28761;DHT22;15917;50.014;8.352;2023-10-13T09:04:00;20.80;99.90
28761;DHT22;15917;50.014;8.352;2023-10-13T09:09:13;20.50;99.90
28761;DHT22;15917;50.014;8.352;2023-10-13T09:11:53;20.50;99.90
28761;DHT22;15917;50.014;8.352;2023-10-13T09:14:33;20.60;99.90
28761;DHT22;15917;50.014;8.352;2023-10-13T09:17:05;21.00;99.90
28761;DHT22;15917;50.014;8.352;2023-10-13T09:19:48;21.40;99.90
28761;DHT22;15917;50.014;8.352;2023-10-13T09:22:29;21.70;99.90
28761;DHT22;15917;50.014;8.352;2023-10-13T09:25:05;22.00;99.90
28761;DHT22;15917;50.014;8.352;2023-10-13T09:27:32;22.10;99.90
28761;DHT22;15917;50.014;8.352;2023-10-13T09:30:03;22.10;99.90
28761;DHT22;15917;50.014;8.352;2023-10-13T09:32:47;22.10;99.90
28761;DHT22;15917;50.014;8.352;2023-10-13T09:35:21;21.90;99.90
28761;DHT22;15917;50.014;8.352;2023-10-13T09:37:53;21.80;99.90
28761;DHT22;15917;50.014;8.352;2023-10-13T09:40:23;21.80;99.90
28761;DHT22;15917;50.014;8.352;2023-10-13T09:43:00;22.00;99.90
28761;DHT22;15917;50.014;8.352;2023-10-13T09:45:31;22.40;99.90
28761;DHT22;15917;50.014;8.352;2023-10-13T09:48:37;22.50;99.90
28761;DHT22;15917;50.014;8.352;2023-10-13T09:51:14;22.50;99.90
28761;DHT22;15917;50.014;8.352;2023-10-13T09:53:55;22.50;99.90
28761;DHT22;15917;50.014;8.352;2023-10-13T09:56:28;22.80;99.90
28761;DHT22;15917;50.014;8.352;2023-10-13T09:59:00;22.90;99.90
28761;DHT22;15917;50.014;8.352;2023-10-13T10:01:44;23.10;99.90
28761;DHT22;15917;50.014;8.352;2023-10-13T10:04:16;23.10;99.90
28761;DHT22;15917;50.014;8.352;2023-10-13T10:06:59;23.10;99.90
28761;DHT22;15917;50.014;8.352;2023-10-13T10:09:30;23.00;99.90
28761;DHT22;15917;50.014;8.352;2023-10-13T10:12:24;23.00;99.90
28761;DHT22;15917;50.014;8.352;2023-10-13T10:17:43;23.00;99.90
28761;DHT22;15917;50.014;8.352;2023-10-13T10:20:09;23.10;99.90
28761;DHT22;15917;50.014;8.352;2023-10-13T10:22:41;23.10;99.90
28761;DHT22;15917;50.014;8.352;2023-10-13T10:25:13;23.10;99.90
28761;DHT22;15917;50.014;8.352;2023-10-13T10:27:55;22.90;99.90
28761;DHT22;15917;50.014;8.352;2023-10-13T10:30:26;22.90;99.90
28761;DHT22;15917;50.014;8.352;2023-10-13T10:32:57;22.80;99.90
28761;DHT22;15917;50.014;8.352;2023-10-13T10:35:25;23.00;99.90
28761;DHT22;15917;50.014;8.352;2023-10-13T10:38:13;23.30;99.90
28761;DHT22;15917;50.014;8.352;2023-10-13T10:40:52;23.40;99.90
28761;DHT22;15917;50.014;8.352;2023-10-13T10:43:28;23.60;99.90
28761;DHT22;15917;50.014;8.352;2023-10-13T10:48:37;23.70;99.90
28761;DHT22;15917;50.014;8.352;2023-10-13T10:51:09;23.80;99.90
28761;DHT22;15917;50.014;8.352;2023-10-13T10:53:51;23.70;99.90
28761;DHT22;15917;50.014;8.352;2023-10-13T10:56:25;23.60;99.90
28761;DHT22;15917;50.014;8.352;2023-10-13T10:59:04;23.40;99.90
28761;DHT22;15917;50.014;8.352;2023-10-13T11:01:31;23.30;99.90
28761;DHT22;15917;50.014;8.352;2023-10-13T11:04:06;23.10;99.90
28761;DHT22;15917;50.014;8.352;2023-10-13T11:07:02;23.20;99.90
28761;DHT22;15917;50.014;8.352;2023-10-13T11:09:30;23.30;99.90
28761;DHT22;15917;50.014;8.352;2023-10-13T11:12:12;23.30;99.90
28761;DHT22;15917;50.014;8.352;2023-10-13T11:14:42;23.30;99.90
28761;DHT22;15917;50.014;8.352;2023-10-13T11:17:08;23.30;99.90
28761;DHT22;15917;50.014;8.352;2023-10-13T11:19:46;23.30;99.90
28761;DHT22;15917;50.014;8.352;2023-10-13T11:22:16;23.30;99.90
28761;DHT22;15917;50.014;8.352;2023-10-13T11:25:02;23.40;99.90
28761;DHT22;15917;50.014;8.352;2023-10-13T11:27:37;23.40;99.90
28761;DHT22;15917;50.014;8.352;2023-10-13T11:30:18;23.40;99.90
28761;DHT22;15917;50.014;8.352;2023-10-13T11:35:23;23.50;99.90
28761;DHT22;15917;50.014;8.352;2023-10-13T11:37:52;23.60;99.90
28761;DHT22;15917;50.014;8.352;2023-10-13T11:40:38;23.80;99.90
28761;DHT22;15917;50.014;8.352;2023-10-13T11:43:12;24.10;99.90
28761;DHT22;15917;50.014;8.352;2023-10-13T11:45:41;24.10;99.90
28761;DHT22;15917;50.014;8.352;2023-10-13T11:48:44;24.10;99.90
28761;DHT22;15917;50.014;8.352;2023-10-13T11:51:12;24.10;99.90
28761;DHT22;15917;50.014;8.352;2023-10-13T11:54:04;24.10;99.90
28761;DHT22;15917;50.014;8.352;2023-10-13T11:56:30;24.20;99.90
28761;DHT22;15917;50.014;8.352;2023-10-13T11:58:56;24.30;99.90
28761;DHT22;15917;50.014;8.352;2023-10-13T12:01:27;24.30;99.90
28761;DHT22;15917;50.014;8.352;2023-10-13T12:04:11;24.30;99.90
28761;DHT22;15917;50.014;8.352;2023-10-13T12:06:55;24.30;99.90
28761;DHT22;15917;50.014;8.352;2023-10-13T12:09:40;24.30;99.90
28761;DHT22;15917;50.014;8.352;2023-10-13T12:12:29;24.30;99.90
28761;DHT22;15917;50.014;8.352;2023-10-13T12:15:06;24.20;99.90
28761;DHT22;15917;50.014;8.352;2023-10-13T12:17:39;24.10;99.90
28761;DHT22;15917;50.014;8.352;2023-10-13T12:20:10;24.10;99.90
28761;DHT22;15917;50.014;8.352;2023-10-13T12:22:36;24.00;99.90
28761;DHT22;15917;50.014;8.352;2023-10-13T12:25:08;23.90;99.90
28761;DHT22;15917;50.014;8.352;2023-10-13T12:27:54;23.90;99.90
28761;DHT22;15917;50.014;8.352;2023-10-13T12:30:22;23.90;99.90
28761;DHT22;15917;50.014;8.352;2023-10-13T12:33:01;23.80;99.90
28761;DHT22;15917;50.014;8.352;2023-10-13T12:35:39;23.90;99.90
28761;DHT22;15917;50.014;8.352;2023-10-13T12:38:30;23.90;99.90
28761;DHT22;15917;50.014;8.352;2023-10-13T12:41:05;23.90;99.90
28761;DHT22;15917;50.014;8.352;2023-10-13T12:43:49;24.00;99.90
28761;DHT22;15917;50.014;8.352;2023-10-13T12:46:33;24.00;99.90
28761;DHT22;15917;50.014;8.352;2023-10-13T12:49:17;24.10;99.90
28761;DHT22;15917;50.014;8.352;2023-10-13T12:52:03;24.20;99.90
28761;DHT22;15917;50.014;8.352;2023-10-13T12:54:29;24.20;99.90
28761;DHT22;15917;50.014;8.352;2023-10-13T12:57:01;24.20;99.90
28761;DHT22;15917;50.014;8.352;2023-10-13T12:59:28;24.50;99.90
28761;DHT22;15917;50.014;8.352;2023-10-13T13:01:54;24.70;99.90
28761;DHT22;15917;50.014;8.352;2023-10-13T13:04:19;24.90;99.90
28761;DHT22;15917;50.014;8.352;2023-10-13T13:06:46;25.30;99.90
28761;DHT22;15917;50.014;8.352;2023-10-13T13:09:12;25.90;99.90
28761;DHT22;15917;50.014;8.352;2023-10-13T13:11:38;26.10;99.90
28761;DHT22;15917;50.014;8.352;2023-10-13T13:14:08;26.20;99.90
28761;DHT22;15917;50.014;8.352;2023-10-13T13:16:35;26.40;99.90
28761;DHT22;15917;50.014;8.352;2023-10-13T13:19:01;26.60;99.90
28761;DHT22;15917;50.014;8.352;2023-10-13T13:21:38;26.50;99.90
28761;DHT22;15917;50.014;8.352;2023-10-13T13:24:05;26.50;99.90
28761;DHT22;15917;50.014;8.352;2023-10-13T13:26:37;26.70;99.90
28761;DHT22;15917;50.014;8.352;2023-10-13T13:29:06;27.10;99.90
28761;DHT22;15917;50.014;8.352;2023-10-13T13:31:35;27.20;99.90
28761;DHT22;15917;50.014;8.352;2023-10-13T13:34:09;27.40;99.90
28761;DHT22;15917;50.014;8.352;2023-10-13T13:36:35;27.50;99.90
28761;DHT22;15917;50.014;8.352;2023-10-13T13:39:01;27.50;99.90
28761;DHT22;15917;50.014;8.352;2023-10-13T13:41:27;27.40;99.90
28761;DHT22;15917;50.014;8.352;2023-10-13T13:43:53;27.30;99.90
28761;DHT22;15917;50.014;8.352;2023-10-13T13:46:25;27.40;99.90
28761;DHT22;15917;50.014;8.352;2023-10-13T13:48:59;27.50;99.90
28761;DHT22;15917;50.014;8.352;2023-10-13T13:51:29;27.70;99.90
28761;DHT22;15917;50.014;8.352;2023-10-13T13:53:58;27.90;99.90
28761;DHT22;15917;50.014;8.352;2023-10-13T13:56:25;28.10;99.90
28761;DHT22;15917;50.014;8.352;2023-10-13T13:58:53;27.80;99.90
28761;DHT22;15917;50.014;8.352;2023-10-13T14:01:20;27.80;99.90
28761;DHT22;15917;50.014;8.352;2023-10-13T14:03:51;27.60;99.90
28761;DHT22;15917;50.014;8.352;2023-10-13T14:06:19;27.20;99.90
28761;DHT22;15917;50.014;8.352;2023-10-13T14:08:59;26.80;99.90
28761;DHT22;15917;50.014;8.352;2023-10-13T14:11:30;26.50;99.90
28761;DHT22;15917;50.014;8.352;2023-10-13T14:14:10;26.50;99.90
28761;DHT22;15917;50.014;8.352;2023-10-13T14:16:54;26.40;99.90
28761;DHT22;15917;50.014;8.352;2023-10-13T14:19:28;26.40;99.90
28761;DHT22;15917;50.014;8.352;2023-10-13T14:21:55;26.20;99.90
28761;DHT22;15917;50.014;8.352;2023-10-13T14:24:21;26.10;99.90
28761;DHT22;15917;50.014;8.352;2023-10-13T14:26:54;25.90;99.90
28761;DHT22;15917;50.014;8.352;2023-10-13T14:29:20;25.70;99.90
28761;DHT22;15917;50.014;8.352;2023-10-13T14:31:46;25.50;99.90
28761;DHT22;15917;50.014;8.352;2023-10-13T14:34:14;25.40;99.90
28761;DHT22;15917;50.014;8.352;2023-10-13T14:36:42;25.30;99.90
28761;DHT22;15917;50.014;8.352;2023-10-13T14:39:14;25.30;99.90
28761;DHT22;15917;50.014;8.352;2023-10-13T14:41:40;25.20;99.90
28761;DHT22;15917;50.014;8.352;2023-10-13T14:44:06;25.20;99.90
28761;DHT22;15917;50.014;8.352;2023-10-13T14:46:32;25.20;99.90
28761;DHT22;15917;50.014;8.352;2023-10-13T14:49:02;25.20;99.90
28761;DHT22;15917;50.014;8.352;2023-10-13T14:51:28;25.20;99.90
28761;DHT22;15917;50.014;8.352;2023-10-13T14:53:54;25.20;99.90
28761;DHT22;15917;50.014;8.352;2023-10-13T14:56:22;25.20;99.90
28761;DHT22;15917;50.014;8.352;2023-10-13T14:58:52;25.20;99.90
28761;DHT22;15917;50.014;8.352;2023-10-13T15:01:20;25.30;99.90
28761;DHT22;15917;50.014;8.352;2023-10-13T15:03:48;25.40;99.90
28761;DHT22;15917;50.014;8.352;2023-10-13T15:06:16;25.30;99.90
28761;DHT22;15917;50.014;8.352;2023-10-13T15:09:00;25.30;99.90
28761;DHT22;15917;50.014;8.352;2023-10-13T15:11:27;25.20;99.90
28761;DHT22;15917;50.014;8.352;2023-10-13T15:13:56;25.10;99.90
28761;DHT22;15917;50.014;8.352;2023-10-13T15:16:26;25.00;99.90
28761;DHT22;15917;50.014;8.352;2023-10-13T15:18:54;24.90;99.90
28761;DHT22;15917;50.014;8.352;2023-10-13T15:21:24;24.80;99.90
28761;DHT22;15917;50.014;8.352;2023-10-13T15:24:06;24.70;99.90
28761;DHT22;15917;50.014;8.352;2023-10-13T15:26:42;24.60;99.90
28761;DHT22;15917;50.014;8.352;2023-10-13T15:29:16;24.50;99.90
28761;DHT22;15917;50.014;8.352;2023-10-13T15:31:45;24.50;99.90
28761;DHT22;15917;50.014;8.352;2023-10-13T15:34:27;24.50;99.90
28761;DHT22;15917;50.014;8.352;2023-10-13T15:36:53;24.50;99.90
28761;DHT22;15917;50.014;8.352;2023-10-13T15:39:24;24.40;99.90
28761;DHT22;15917;50.014;8.352;2023-10-13T15:41:53;24.30;99.90
28761;DHT22;15917;50.014;8.352;2023-10-13T15:44:20;24.30;99.90
28761;DHT22;15917;50.014;8.352;2023-10-13T15:46:47;24.20;99.90
28761;DHT22;15917;50.014;8.352;2023-10-13T15:49:17;24.20;99.90
28761;DHT22;15917;50.014;8.352;2023-10-13T15:51:43;24.10;99.90
28761;DHT22;15917;50.014;8.352;2023-10-13T15:54:09;24.10;99.90
28761;DHT22;15917;50.014;8.352;2023-10-13T15:56:48;24.00;99.90
28761;DHT22;15917;50.014;8.352;2023-10-13T15:59:14;23.90;99.90
28761;DHT22;15917;50.014;8.352;2023-10-13T16:01:40;23.80;99.90
28761;DHT22;15917;50.014;8.352;2023-10-13T16:04:07;23.70;99.90
28761;DHT22;15917;50.014;8.352;2023-10-13T16:06:43;23.70;99.90
28761;DHT22;15917;50.014;8.352;2023-10-13T16:09:12;23.50;99.90
28761;DHT22;15917;50.014;8.352;2023-10-13T16:11:45;23.40;99.90
28761;DHT22;15917;50.014;8.352;2023-10-13T16:14:13;23.40;99.90
28761;DHT22;15917;50.014;8.352;2023-10-13T16:16:50;23.30;99.90
28761;DHT22;15917;50.014;8.352;2023-10-13T16:19:19;23.20;99.90
28761;DHT22;15917;50.014;8.352;2023-10-13T16:21:52;23.20;99.90
28761;DHT22;15917;50.014;8.352;2023-10-13T16:24:19;23.10;99.90
28761;DHT22;15917;50.014;8.352;2023-10-13T16:26:48;23.10;99.90